sensor_id;sensor_type;location;lat;lon;timestamp;P1;durP1;ratioP1;P2;durP2;ratioP2
52230;SDS011;38192;50.102;19.884;2022-08-03T00:02:24;21.00;;;18.80;;
52230;SDS011;38192;50.102;19.884;2022-08-03T00:04:50;29.88;;;22.35;;
52230;SDS011;38192;50.102;19.884;2022-08-03T00:07:16;21.20;;;18.33;;
52230;SDS011;38192;50.102;19.884;2022-08-03T00:09:42;21.85;;;18.58;;
52230;SDS011;38192;50.102;19.884;2022-08-03T00:12:08;18.48;;;16.23;;
52230;SDS011;38192;50.102;19.884;2022-08-03T00:14:34;19.95;;;17.17;;
52230;SDS011;38192;50.102;19.884;2022-08-03T00:16:59;24.73;;;20.30;;
52230;SDS011;38192;50.102;19.884;2022-08-03T00:19:25;26.50;;;22.25;;
52230;SDS011;38192;50.102;19.884;2022-08-03T00:21:52;23.65;;;18.55;;
52230;SDS011;38192;50.102;19.884;2022-08-03T00:24:18;19.52;;;17.42;;
52230;SDS011;38192;50.102;19.884;2022-08-03T00:26:44;28.33;;;21.25;;
52230;SDS011;38192;50.102;19.884;2022-08-03T00:29:09;22.75;;;20.30;;
52230;SDS011;38192;50.102;19.884;2022-08-03T00:31:35;27.58;;;20.65;;
52230;SDS011;38192;50.102;19.884;2022-08-03T00:34:01;24.02;;;21.45;;
52230;SDS011;38192;50.102;19.884;2022-08-03T00:36:27;21.13;;;18.35;;
52230;SDS011;38192;50.102;19.884;2022-08-03T00:38:53;23.35;;;20.85;;
52230;SDS011;38192;50.102;19.884;2022-08-03T00:41:19;23.40;;;18.65;;
52230;SDS011;38192;50.102;19.884;2022-08-03T00:43:45;24.40;;;21.63;;
52230;SDS011;38192;50.102;19.884;2022-08-03T00:46:11;23.27;;;19.42;;
52230;SDS011;38192;50.102;19.884;2022-08-03T00:48:37;22.27;;;19.70;;
52230;SDS011;38192;50.102;19.884;2022-08-03T00:51:04;18.73;;;16.73;;
52230;SDS011;38192;50.102;19.884;2022-08-03T00:53:31;29.10;;;21.75;;
52230;SDS011;38192;50.102;19.884;2022-08-03T00:55:57;25.00;;;18.88;;
52230;SDS011;38192;50.102;19.884;2022-08-03T00:58:23;19.70;;;17.52;;
52230;SDS011;38192;50.102;19.884;2022-08-03T01:00:49;26.02;;;20.33;;
52230;SDS011;38192;50.102;19.884;2022-08-03T01:03:14;22.38;;;19.58;;
52230;SDS011;38192;50.102;19.884;2022-08-03T01:13:39;25.98;;;21.38;;
52230;SDS011;38192;50.102;19.884;2022-08-03T01:19:01;24.70;;;19.73;;
52230;SDS011;38192;50.102;19.884;2022-08-03T01:24:26;21.25;;;18.67;;
52230;SDS011;38192;50.102;19.884;2022-08-03T01:27:14;19.50;;;16.38;;
52230;SDS011;38192;50.102;19.884;2022-08-03T01:32:43;27.20;;;22.25;;
52230;SDS011;38192;50.102;19.884;2022-08-03T01:38:33;21.73;;;18.48;;
52230;SDS011;38192;50.102;19.884;2022-08-03T01:41:20;22.42;;;18.30;;
52230;SDS011;38192;50.102;19.884;2022-08-03T01:43:50;21.55;;;17.42;;
52230;SDS011;38192;50.102;19.884;2022-08-03T01:46:18;28.60;;;21.52;;
52230;SDS011;38192;50.102;19.884;2022-08-03T01:48:45;23.05;;;17.70;;
52230;SDS011;38192;50.102;19.884;2022-08-03T01:51:13;20.63;;;17.73;;
52230;SDS011;38192;50.102;19.884;2022-08-03T01:53:41;22.92;;;19.42;;
52230;SDS011;38192;50.102;19.884;2022-08-03T01:56:08;30.08;;;25.17;;
52230;SDS011;38192;50.102;19.884;2022-08-03T01:58:35;27.48;;;24.42;;
52230;SDS011;38192;50.102;19.884;2022-08-03T02:01:04;22.58;;;19.55;;
52230;SDS011;38192;50.102;19.884;2022-08-03T02:03:31;25.08;;;19.10;;
52230;SDS011;38192;50.102;19.884;2022-08-03T02:06:01;25.17;;;21.50;;
52230;SDS011;38192;50.102;19.884;2022-08-03T02:08:27;22.98;;;18.85;;
52230;SDS011;38192;50.102;19.884;2022-08-03T02:10:55;24.73;;;20.27;;
52230;SDS011;38192;50.102;19.884;2022-08-03T02:13:23;23.52;;;20.83;;
52230;SDS011;38192;50.102;19.884;2022-08-03T02:15:51;29.55;;;19.42;;
52230;SDS011;38192;50.102;19.884;2022-08-03T02:18:18;26.42;;;21.75;;
52230;SDS011;38192;50.102;19.884;2022-08-03T02:20:46;20.60;;;17.73;;
52230;SDS011;38192;50.102;19.884;2022-08-03T02:23:14;28.38;;;22.55;;
52230;SDS011;38192;50.102;19.884;2022-08-03T02:25:42;31.02;;;26.67;;
52230;SDS011;38192;50.102;19.884;2022-08-03T02:28:12;41.28;;;29.17;;
52230;SDS011;38192;50.102;19.884;2022-08-03T02:30:42;32.05;;;27.42;;
52230;SDS011;38192;50.102;19.884;2022-08-03T02:33:12;27.23;;;22.63;;
52230;SDS011;38192;50.102;19.884;2022-08-03T02:35:42;31.50;;;25.17;;
52230;SDS011;38192;50.102;19.884;2022-08-03T02:38:09;28.48;;;23.60;;
52230;SDS011;38192;50.102;19.884;2022-08-03T02:40:37;34.25;;;25.67;;
52230;SDS011;38192;50.102;19.884;2022-08-03T02:43:09;31.00;;;23.75;;
52230;SDS011;38192;50.102;19.884;2022-08-03T02:45:41;27.08;;;23.35;;
52230;SDS011;38192;50.102;19.884;2022-08-03T02:48:09;28.33;;;24.23;;
52230;SDS011;38192;50.102;19.884;2022-08-03T02:50:36;26.42;;;22.70;;
52230;SDS011;38192;50.102;19.884;2022-08-03T02:53:03;25.17;;;21.73;;
52230;SDS011;38192;50.102;19.884;2022-08-03T02:55:31;25.70;;;19.60;;
52230;SDS011;38192;50.102;19.884;2022-08-03T02:58:00;31.42;;;24.65;;
52230;SDS011;38192;50.102;19.884;2022-08-03T03:00:29;30.27;;;24.02;;
52230;SDS011;38192;50.102;19.884;2022-08-03T03:02:57;26.10;;;23.40;;
52230;SDS011;38192;50.102;19.884;2022-08-03T03:05:24;33.30;;;27.02;;
52230;SDS011;38192;50.102;19.884;2022-08-03T03:07:50;24.15;;;19.80;;
52230;SDS011;38192;50.102;19.884;2022-08-03T03:10:17;26.25;;;21.35;;
52230;SDS011;38192;50.102;19.884;2022-08-03T03:12:47;27.73;;;22.10;;
52230;SDS011;38192;50.102;19.884;2022-08-03T03:15:16;29.02;;;22.88;;
52230;SDS011;38192;50.102;19.884;2022-08-03T03:17:43;24.48;;;20.20;;
52230;SDS011;38192;50.102;19.884;2022-08-03T03:20:09;33.33;;;24.23;;
52230;SDS011;38192;50.102;19.884;2022-08-03T03:22:36;29.73;;;23.25;;
52230;SDS011;38192;50.102;19.884;2022-08-03T03:25:02;23.15;;;18.73;;
52230;SDS011;38192;50.102;19.884;2022-08-03T03:27:30;26.02;;;20.85;;
52230;SDS011;38192;50.102;19.884;2022-08-03T03:29:58;32.17;;;22.27;;
52230;SDS011;38192;50.102;19.884;2022-08-03T03:32:28;26.05;;;18.63;;
52230;SDS011;38192;50.102;19.884;2022-08-03T03:34:54;23.45;;;18.25;;
52230;SDS011;38192;50.102;19.884;2022-08-03T03:37:23;22.85;;;18.17;;
52230;SDS011;38192;50.102;19.884;2022-08-03T03:39:51;36.72;;;25.00;;
52230;SDS011;38192;50.102;19.884;2022-08-03T03:42:18;30.58;;;21.45;;
52230;SDS011;38192;50.102;19.884;2022-08-03T03:44:44;27.08;;;20.60;;
52230;SDS011;38192;50.102;19.884;2022-08-03T03:47:10;34.42;;;23.27;;
52230;SDS011;38192;50.102;19.884;2022-08-03T03:49:36;31.45;;;24.45;;
52230;SDS011;38192;50.102;19.884;2022-08-03T03:52:03;36.10;;;26.60;;
52230;SDS011;38192;50.102;19.884;2022-08-03T03:54:39;26.73;;;21.40;;
52230;SDS011;38192;50.102;19.884;2022-08-03T03:57:06;28.52;;;25.45;;
52230;SDS011;38192;50.102;19.884;2022-08-03T03:59:38;34.45;;;29.23;;
52230;SDS011;38192;50.102;19.884;2022-08-03T04:02:08;35.40;;;26.48;;
52230;SDS011;38192;50.102;19.884;2022-08-03T04:04:35;32.90;;;25.23;;
52230;SDS011;38192;50.102;19.884;2022-08-03T04:07:22;31.65;;;25.90;;
52230;SDS011;38192;50.102;19.884;2022-08-03T04:10:17;33.22;;;26.20;;
52230;SDS011;38192;50.102;19.884;2022-08-03T04:13:08;37.40;;;31.27;;
52230;SDS011;38192;50.102;19.884;2022-08-03T04:15:39;39.58;;;29.48;;
52230;SDS011;38192;50.102;19.884;2022-08-03T04:18:07;30.25;;;26.35;;
52230;SDS011;38192;50.102;19.884;2022-08-03T04:20:37;31.10;;;23.85;;
52230;SDS011;38192;50.102;19.884;2022-08-03T04:23:05;35.13;;;27.63;;
52230;SDS011;38192;50.102;19.884;2022-08-03T04:25:33;34.15;;;26.65;;
52230;SDS011;38192;50.102;19.884;2022-08-03T04:28:01;25.92;;;21.70;;
52230;SDS011;38192;50.102;19.884;2022-08-03T04:30:28;26.38;;;21.75;;
52230;SDS011;38192;50.102;19.884;2022-08-03T04:32:57;29.58;;;25.77;;
52230;SDS011;38192;50.102;19.884;2022-08-03T04:35:25;32.75;;;25.42;;
52230;SDS011;38192;50.102;19.884;2022-08-03T04:37:55;26.92;;;21.67;;
52230;SDS011;38192;50.102;19.884;2022-08-03T04:40:35;32.90;;;23.83;;
52230;SDS011;38192;50.102;19.884;2022-08-03T04:43:03;32.13;;;22.35;;
52230;SDS011;38192;50.102;19.884;2022-08-03T04:45:32;31.02;;;20.88;;
52230;SDS011;38192;50.102;19.884;2022-08-03T04:47:58;27.83;;;22.88;;
52230;SDS011;38192;50.102;19.884;2022-08-03T04:50:24;32.80;;;24.90;;
52230;SDS011;38192;50.102;19.884;2022-08-03T04:53:04;27.73;;;21.05;;
52230;SDS011;38192;50.102;19.884;2022-08-03T04:55:31;26.50;;;22.52;;
52230;SDS011;38192;50.102;19.884;2022-08-03T04:57:58;27.05;;;22.00;;
52230;SDS011;38192;50.102;19.884;2022-08-03T05:00:25;28.10;;;21.95;;
52230;SDS011;38192;50.102;19.884;2022-08-03T05:02:52;31.35;;;22.85;;
52230;SDS011;38192;50.102;19.884;2022-08-03T05:05:18;30.25;;;23.27;;
52230;SDS011;38192;50.102;19.884;2022-08-03T05:07:44;25.02;;;22.08;;
52230;SDS011;38192;50.102;19.884;2022-08-03T05:10:11;31.63;;;21.73;;
52230;SDS011;38192;50.102;19.884;2022-08-03T05:12:38;33.15;;;23.92;;
52230;SDS011;38192;50.102;19.884;2022-08-03T05:15:04;31.85;;;21.85;;
52230;SDS011;38192;50.102;19.884;2022-08-03T05:17:31;34.70;;;25.65;;
52230;SDS011;38192;50.102;19.884;2022-08-03T05:20:01;32.03;;;21.48;;
52230;SDS011;38192;50.102;19.884;2022-08-03T05:22:28;26.38;;;23.48;;
52230;SDS011;38192;50.102;19.884;2022-08-03T05:24:54;29.02;;;22.20;;
52230;SDS011;38192;50.102;19.884;2022-08-03T05:27:20;26.83;;;22.20;;
52230;SDS011;38192;50.102;19.884;2022-08-03T05:29:46;28.95;;;22.30;;
52230;SDS011;38192;50.102;19.884;2022-08-03T05:32:14;29.52;;;20.70;;
52230;SDS011;38192;50.102;19.884;2022-08-03T05:34:40;26.08;;;20.52;;
52230;SDS011;38192;50.102;19.884;2022-08-03T05:37:07;24.92;;;20.35;;
52230;SDS011;38192;50.102;19.884;2022-08-03T05:39:33;21.42;;;19.23;;
52230;SDS011;38192;50.102;19.884;2022-08-03T05:41:59;26.40;;;19.73;;
52230;SDS011;38192;50.102;19.884;2022-08-03T05:44:25;29.58;;;23.27;;
52230;SDS011;38192;50.102;19.884;2022-08-03T05:46:51;29.67;;;25.17;;
52230;SDS011;38192;50.102;19.884;2022-08-03T05:49:17;23.30;;;20.65;;
52230;SDS011;38192;50.102;19.884;2022-08-03T05:51:43;22.92;;;20.17;;
52230;SDS011;38192;50.102;19.884;2022-08-03T05:54:09;25.70;;;20.45;;
52230;SDS011;38192;50.102;19.884;2022-08-03T05:56:35;25.40;;;20.98;;
52230;SDS011;38192;50.102;19.884;2022-08-03T05:59:02;23.10;;;20.40;;
52230;SDS011;38192;50.102;19.884;2022-08-03T06:01:28;21.52;;;19.05;;
52230;SDS011;38192;50.102;19.884;2022-08-03T06:03:56;22.13;;;19.75;;
52230;SDS011;38192;50.102;19.884;2022-08-03T06:06:22;26.63;;;23.20;;
52230;SDS011;38192;50.102;19.884;2022-08-03T06:08:48;29.83;;;23.98;;
52230;SDS011;38192;50.102;19.884;2022-08-03T06:11:14;29.58;;;26.23;;
52230;SDS011;38192;50.102;19.884;2022-08-03T06:13:41;30.30;;;26.17;;
52230;SDS011;38192;50.102;19.884;2022-08-03T06:16:07;28.63;;;25.55;;
52230;SDS011;38192;50.102;19.884;2022-08-03T06:18:33;28.48;;;25.30;;
52230;SDS011;38192;50.102;19.884;2022-08-03T06:21:00;27.17;;;24.35;;
52230;SDS011;38192;50.102;19.884;2022-08-03T06:23:26;23.90;;;21.35;;
52230;SDS011;38192;50.102;19.884;2022-08-03T06:25:52;26.65;;;21.20;;
52230;SDS011;38192;50.102;19.884;2022-08-03T06:28:18;25.45;;;22.75;;
52230;SDS011;38192;50.102;19.884;2022-08-03T06:30:44;25.15;;;22.45;;
52230;SDS011;38192;50.102;19.884;2022-08-03T06:33:10;23.67;;;21.17;;
52230;SDS011;38192;50.102;19.884;2022-08-03T06:35:36;27.88;;;23.08;;
52230;SDS011;38192;50.102;19.884;2022-08-03T06:38:02;27.20;;;21.60;;
52230;SDS011;38192;50.102;19.884;2022-08-03T06:40:28;21.67;;;19.48;;
52230;SDS011;38192;50.102;19.884;2022-08-03T06:42:58;23.45;;;19.27;;
52230;SDS011;38192;50.102;19.884;2022-08-03T06:45:26;24.52;;;20.27;;
52230;SDS011;38192;50.102;19.884;2022-08-03T06:48:11;24.02;;;19.30;;
52230;SDS011;38192;50.102;19.884;2022-08-03T06:50:38;22.70;;;20.30;;
52230;SDS011;38192;50.102;19.884;2022-08-03T06:53:08;22.05;;;18.38;;
52230;SDS011;38192;50.102;19.884;2022-08-03T06:55:34;27.17;;;18.50;;
52230;SDS011;38192;50.102;19.884;2022-08-03T06:58:00;27.20;;;19.50;;
52230;SDS011;38192;50.102;19.884;2022-08-03T07:00:26;23.77;;;18.75;;
52230;SDS011;38192;50.102;19.884;2022-08-03T07:02:52;28.33;;;22.02;;
52230;SDS011;38192;50.102;19.884;2022-08-03T07:05:18;23.17;;;20.73;;
52230;SDS011;38192;50.102;19.884;2022-08-03T07:07:44;21.20;;;19.02;;
52230;SDS011;38192;50.102;19.884;2022-08-03T07:10:10;23.55;;;21.05;;
52230;SDS011;38192;50.102;19.884;2022-08-03T07:12:37;24.83;;;20.00;;
52230;SDS011;38192;50.102;19.884;2022-08-03T07:15:04;22.35;;;19.63;;
52230;SDS011;38192;50.102;19.884;2022-08-03T07:17:34;23.95;;;21.05;;
52230;SDS011;38192;50.102;19.884;2022-08-03T07:20:02;21.98;;;18.63;;
52230;SDS011;38192;50.102;19.884;2022-08-03T07:22:31;26.25;;;18.08;;
52230;SDS011;38192;50.102;19.884;2022-08-03T07:24:57;17.20;;;14.38;;
52230;SDS011;38192;50.102;19.884;2022-08-03T07:27:23;20.67;;;18.45;;
52230;SDS011;38192;50.102;19.884;2022-08-03T07:29:51;18.27;;;15.98;;
52230;SDS011;38192;50.102;19.884;2022-08-03T07:32:16;21.48;;;15.43;;
52230;SDS011;38192;50.102;19.884;2022-08-03T07:34:42;18.88;;;14.50;;
52230;SDS011;38192;50.102;19.884;2022-08-03T07:37:08;16.48;;;13.88;;
52230;SDS011;38192;50.102;19.884;2022-08-03T07:39:34;17.75;;;11.70;;
52230;SDS011;38192;50.102;19.884;2022-08-03T07:42:00;17.42;;;12.40;;
52230;SDS011;38192;50.102;19.884;2022-08-03T07:44:25;14.85;;;12.35;;
52230;SDS011;38192;50.102;19.884;2022-08-03T07:46:51;12.13;;;10.68;;
52230;SDS011;38192;50.102;19.884;2022-08-03T07:49:17;11.88;;;10.68;;
52230;SDS011;38192;50.102;19.884;2022-08-03T07:51:43;13.85;;;11.18;;
52230;SDS011;38192;50.102;19.884;2022-08-03T07:54:09;12.07;;;10.77;;
52230;SDS011;38192;50.102;19.884;2022-08-03T07:56:35;16.08;;;11.48;;
52230;SDS011;38192;50.102;19.884;2022-08-03T07:59:02;10.50;;;9.45;;
52230;SDS011;38192;50.102;19.884;2022-08-03T08:01:28;13.05;;;8.90;;
52230;SDS011;38192;50.102;19.884;2022-08-03T08:03:56;13.70;;;9.85;;
52230;SDS011;38192;50.102;19.884;2022-08-03T08:06:22;8.88;;;7.80;;
52230;SDS011;38192;50.102;19.884;2022-08-03T08:08:48;10.80;;;8.95;;
52230;SDS011;38192;50.102;19.884;2022-08-03T08:11:14;8.68;;;7.35;;
52230;SDS011;38192;50.102;19.884;2022-08-03T08:13:40;9.60;;;7.32;;
52230;SDS011;38192;50.102;19.884;2022-08-03T08:16:06;10.35;;;7.80;;
52230;SDS011;38192;50.102;19.884;2022-08-03T08:18:31;7.25;;;6.60;;
52230;SDS011;38192;50.102;19.884;2022-08-03T08:20:58;8.75;;;6.95;;
52230;SDS011;38192;50.102;19.884;2022-08-03T08:23:25;11.02;;;7.68;;
52230;SDS011;38192;50.102;19.884;2022-08-03T08:25:51;10.32;;;9.18;;
52230;SDS011;38192;50.102;19.884;2022-08-03T08:28:18;10.15;;;7.93;;
52230;SDS011;38192;50.102;19.884;2022-08-03T08:30:44;9.63;;;8.60;;
52230;SDS011;38192;50.102;19.884;2022-08-03T08:33:11;10.77;;;8.55;;
52230;SDS011;38192;50.102;19.884;2022-08-03T08:35:37;7.88;;;7.10;;
52230;SDS011;38192;50.102;19.884;2022-08-03T08:38:03;9.45;;;7.60;;
52230;SDS011;38192;50.102;19.884;2022-08-03T08:40:29;9.75;;;6.95;;
52230;SDS011;38192;50.102;19.884;2022-08-03T08:42:55;9.65;;;7.85;;
52230;SDS011;38192;50.102;19.884;2022-08-03T08:45:23;10.15;;;8.80;;
52230;SDS011;38192;50.102;19.884;2022-08-03T08:47:49;9.80;;;8.82;;
52230;SDS011;38192;50.102;19.884;2022-08-03T08:50:17;9.70;;;7.63;;
52230;SDS011;38192;50.102;19.884;2022-08-03T08:52:46;8.20;;;7.40;;
52230;SDS011;38192;50.102;19.884;2022-08-03T08:55:18;9.23;;;8.15;;
52230;SDS011;38192;50.102;19.884;2022-08-03T08:57:47;8.00;;;7.23;;
52230;SDS011;38192;50.102;19.884;2022-08-03T09:00:15;8.57;;;7.65;;
52230;SDS011;38192;50.102;19.884;2022-08-03T09:02:41;9.43;;;6.55;;
52230;SDS011;38192;50.102;19.884;2022-08-03T09:05:09;7.80;;;6.88;;
52230;SDS011;38192;50.102;19.884;2022-08-03T09:07:37;9.60;;;6.10;;
52230;SDS011;38192;50.102;19.884;2022-08-03T09:10:04;7.90;;;7.15;;
52230;SDS011;38192;50.102;19.884;2022-08-03T09:12:36;7.60;;;6.90;;
52230;SDS011;38192;50.102;19.884;2022-08-03T09:17:50;7.15;;;6.40;;
52230;SDS011;38192;50.102;19.884;2022-08-03T09:20:18;7.10;;;6.32;;
52230;SDS011;38192;50.102;19.884;2022-08-03T09:22:58;7.13;;;6.43;;
52230;SDS011;38192;50.102;19.884;2022-08-03T09:25:25;9.20;;;5.47;;
52230;SDS011;38192;50.102;19.884;2022-08-03T09:28:09;7.63;;;6.80;;
52230;SDS011;38192;50.102;19.884;2022-08-03T09:30:42;7.18;;;6.47;;
52230;SDS011;38192;50.102;19.884;2022-08-03T09:33:11;6.65;;;5.85;;
52230;SDS011;38192;50.102;19.884;2022-08-03T09:35:44;11.13;;;6.80;;
52230;SDS011;38192;50.102;19.884;2022-08-03T09:38:21;7.95;;;6.28;;
52230;SDS011;38192;50.102;19.884;2022-08-03T09:40:50;7.85;;;7.05;;
52230;SDS011;38192;50.102;19.884;2022-08-03T09:43:17;6.72;;;5.82;;
52230;SDS011;38192;50.102;19.884;2022-08-03T09:45:43;6.75;;;6.15;;
52230;SDS011;38192;50.102;19.884;2022-08-03T09:48:23;6.15;;;5.55;;
52230;SDS011;38192;50.102;19.884;2022-08-03T09:50:51;9.45;;;6.30;;
52230;SDS011;38192;50.102;19.884;2022-08-03T09:53:21;6.07;;;5.55;;
52230;SDS011;38192;50.102;19.884;2022-08-03T09:55:51;8.13;;;6.10;;
52230;SDS011;38192;50.102;19.884;2022-08-03T09:58:19;6.72;;;6.13;;
52230;SDS011;38192;50.102;19.884;2022-08-03T10:03:22;6.63;;;6.00;;
52230;SDS011;38192;50.102;19.884;2022-08-03T10:05:49;9.60;;;5.82;;
52230;SDS011;38192;50.102;19.884;2022-08-03T10:08:16;6.45;;;5.82;;
52230;SDS011;38192;50.102;19.884;2022-08-03T10:10:44;8.60;;;5.97;;
52230;SDS011;38192;50.102;19.884;2022-08-03T10:13:17;8.95;;;6.28;;
52230;SDS011;38192;50.102;19.884;2022-08-03T10:15:44;8.63;;;5.72;;
52230;SDS011;38192;50.102;19.884;2022-08-03T10:18:10;12.98;;;6.70;;
52230;SDS011;38192;50.102;19.884;2022-08-03T10:20:42;9.20;;;5.88;;
52230;SDS011;38192;50.102;19.884;2022-08-03T10:23:11;6.78;;;6.13;;
52230;SDS011;38192;50.102;19.884;2022-08-03T10:25:40;5.80;;;5.28;;
52230;SDS011;38192;50.102;19.884;2022-08-03T10:28:08;9.70;;;6.60;;
52230;SDS011;38192;50.102;19.884;2022-08-03T10:30:40;6.80;;;5.90;;
52230;SDS011;38192;50.102;19.884;2022-08-03T10:33:13;6.17;;;5.57;;
52230;SDS011;38192;50.102;19.884;2022-08-03T10:35:44;6.35;;;5.75;;
52230;SDS011;38192;50.102;19.884;2022-08-03T10:38:16;4.68;;;4.28;;
52230;SDS011;38192;50.102;19.884;2022-08-03T10:40:49;6.00;;;5.28;;
52230;SDS011;38192;50.102;19.884;2022-08-03T10:43:21;5.32;;;4.55;;
52230;SDS011;38192;50.102;19.884;2022-08-03T10:45:56;4.40;;;3.90;;
52230;SDS011;38192;50.102;19.884;2022-08-03T10:48:22;8.82;;;4.40;;
52230;SDS011;38192;50.102;19.884;2022-08-03T10:50:50;5.90;;;4.07;;
52230;SDS011;38192;50.102;19.884;2022-08-03T10:53:16;10.10;;;4.53;;
52230;SDS011;38192;50.102;19.884;2022-08-03T10:55:59;6.68;;;4.82;;
52230;SDS011;38192;50.102;19.884;2022-08-03T10:58:48;4.85;;;4.07;;
52230;SDS011;38192;50.102;19.884;2022-08-03T11:01:16;6.30;;;3.92;;
52230;SDS011;38192;50.102;19.884;2022-08-03T11:06:25;6.32;;;3.45;;
52230;SDS011;38192;50.102;19.884;2022-08-03T11:11:35;6.18;;;4.10;;
52230;SDS011;38192;50.102;19.884;2022-08-03T11:14:19;8.40;;;4.25;;
52230;SDS011;38192;50.102;19.884;2022-08-03T11:16:47;4.35;;;3.97;;
52230;SDS011;38192;50.102;19.884;2022-08-03T11:19:15;7.03;;;4.45;;
52230;SDS011;38192;50.102;19.884;2022-08-03T11:40:40;4.82;;;3.70;;
52230;SDS011;38192;50.102;19.884;2022-08-03T11:48:42;8.82;;;3.83;;
52230;SDS011;38192;50.102;19.884;2022-08-03T11:51:23;6.10;;;3.50;;
52230;SDS011;38192;50.102;19.884;2022-08-03T11:53:50;5.32;;;3.47;;
52230;SDS011;38192;50.102;19.884;2022-08-03T11:56:27;8.93;;;4.20;;
52230;SDS011;38192;50.102;19.884;2022-08-03T11:59:07;4.68;;;3.70;;
52230;SDS011;38192;50.102;19.884;2022-08-03T12:01:33;7.30;;;3.42;;
52230;SDS011;38192;50.102;19.884;2022-08-03T12:04:01;4.25;;;3.30;;
52230;SDS011;38192;50.102;19.884;2022-08-03T12:06:28;4.82;;;3.83;;
52230;SDS011;38192;50.102;19.884;2022-08-03T12:08:54;4.78;;;3.75;;
52230;SDS011;38192;50.102;19.884;2022-08-03T12:11:20;6.80;;;4.10;;
52230;SDS011;38192;50.102;19.884;2022-08-03T12:13:48;8.90;;;6.18;;
52230;SDS011;38192;50.102;19.884;2022-08-03T12:16:24;4.35;;;3.95;;
52230;SDS011;38192;50.102;19.884;2022-08-03T12:18:59;7.85;;;3.97;;
52230;SDS011;38192;50.102;19.884;2022-08-03T12:21:27;7.53;;;4.57;;
52230;SDS011;38192;50.102;19.884;2022-08-03T12:23:57;6.40;;;4.28;;
52230;SDS011;38192;50.102;19.884;2022-08-03T12:26:24;12.20;;;6.10;;
52230;SDS011;38192;50.102;19.884;2022-08-03T12:28:51;7.10;;;4.90;;
52230;SDS011;38192;50.102;19.884;2022-08-03T12:31:17;4.60;;;3.92;;
52230;SDS011;38192;50.102;19.884;2022-08-03T12:39:03;7.75;;;4.05;;
52230;SDS011;38192;50.102;19.884;2022-08-03T12:41:34;6.82;;;4.30;;
52230;SDS011;38192;50.102;19.884;2022-08-03T12:44:04;6.10;;;4.70;;
52230;SDS011;38192;50.102;19.884;2022-08-03T12:46:32;5.25;;;4.45;;
52230;SDS011;38192;50.102;19.884;2022-08-03T12:49:06;4.70;;;4.20;;
52230;SDS011;38192;50.102;19.884;2022-08-03T12:52:18;9.07;;;4.55;;
52230;SDS011;38192;50.102;19.884;2022-08-03T12:54:23;6.35;;;4.47;;
52230;SDS011;38192;50.102;19.884;2022-08-03T12:56:55;5.75;;;4.28;;
52230;SDS011;38192;50.102;19.884;2022-08-03T12:59:27;9.13;;;4.65;;
52230;SDS011;38192;50.102;19.884;2022-08-03T13:01:57;7.07;;;4.35;;
52230;SDS011;38192;50.102;19.884;2022-08-03T13:04:27;5.63;;;4.57;;
52230;SDS011;38192;50.102;19.884;2022-08-03T13:07:01;10.77;;;5.05;;
52230;SDS011;38192;50.102;19.884;2022-08-03T13:09:29;8.18;;;4.80;;
52230;SDS011;38192;50.102;19.884;2022-08-03T13:12:06;8.88;;;5.00;;
52230;SDS011;38192;50.102;19.884;2022-08-03T13:14:33;16.75;;;5.68;;
52230;SDS011;38192;50.102;19.884;2022-08-03T13:16:59;8.27;;;5.00;;
52230;SDS011;38192;50.102;19.884;2022-08-03T13:19:25;8.88;;;5.00;;
52230;SDS011;38192;50.102;19.884;2022-08-03T13:21:51;6.93;;;4.60;;
52230;SDS011;38192;50.102;19.884;2022-08-03T13:24:17;8.80;;;5.03;;
52230;SDS011;38192;50.102;19.884;2022-08-03T13:26:43;5.55;;;5.05;;
52230;SDS011;38192;50.102;19.884;2022-08-03T13:29:09;7.57;;;4.80;;
52230;SDS011;38192;50.102;19.884;2022-08-03T13:31:35;7.32;;;4.50;;
52230;SDS011;38192;50.102;19.884;2022-08-03T13:34:01;7.57;;;5.20;;
52230;SDS011;38192;50.102;19.884;2022-08-03T13:36:27;8.85;;;5.07;;
52230;SDS011;38192;50.102;19.884;2022-08-03T13:38:52;7.63;;;5.03;;
52230;SDS011;38192;50.102;19.884;2022-08-03T13:41:18;5.15;;;4.60;;
52230;SDS011;38192;50.102;19.884;2022-08-03T13:43:44;7.32;;;4.60;;
52230;SDS011;38192;50.102;19.884;2022-08-03T13:46:10;5.72;;;4.30;;
52230;SDS011;38192;50.102;19.884;2022-08-03T13:48:35;5.57;;;4.80;;
52230;SDS011;38192;50.102;19.884;2022-08-03T13:51:01;8.63;;;4.70;;
52230;SDS011;38192;50.102;19.884;2022-08-03T13:53:27;9.75;;;5.00;;
52230;SDS011;38192;50.102;19.884;2022-08-03T13:55:53;6.38;;;4.43;;
52230;SDS011;38192;50.102;19.884;2022-08-03T13:58:19;4.70;;;4.25;;
52230;SDS011;38192;50.102;19.884;2022-08-03T14:00:44;8.07;;;4.65;;
52230;SDS011;38192;50.102;19.884;2022-08-03T14:03:10;5.60;;;4.43;;
52230;SDS011;38192;50.102;19.884;2022-08-03T14:05:36;5.53;;;4.35;;
52230;SDS011;38192;50.102;19.884;2022-08-03T14:08:03;5.43;;;4.82;;
52230;SDS011;38192;50.102;19.884;2022-08-03T14:10:39;4.80;;;4.32;;
52230;SDS011;38192;50.102;19.884;2022-08-03T14:13:06;5.80;;;4.10;;
52230;SDS011;38192;50.102;19.884;2022-08-03T14:15:34;5.15;;;4.65;;
52230;SDS011;38192;50.102;19.884;2022-08-03T14:18:00;5.20;;;4.50;;
52230;SDS011;38192;50.102;19.884;2022-08-03T14:20:26;5.93;;;4.60;;
52230;SDS011;38192;50.102;19.884;2022-08-03T14:22:53;6.38;;;4.53;;
52230;SDS011;38192;50.102;19.884;2022-08-03T14:25:20;5.70;;;4.53;;
52230;SDS011;38192;50.102;19.884;2022-08-03T14:27:46;6.60;;;4.72;;
52230;SDS011;38192;50.102;19.884;2022-08-03T14:30:12;5.88;;;4.03;;
52230;SDS011;38192;50.102;19.884;2022-08-03T14:32:39;6.78;;;4.60;;
52230;SDS011;38192;50.102;19.884;2022-08-03T14:35:05;5.63;;;4.38;;
52230;SDS011;38192;50.102;19.884;2022-08-03T14:37:31;9.80;;;4.75;;
52230;SDS011;38192;50.102;19.884;2022-08-03T14:39:58;5.05;;;4.15;;
52230;SDS011;38192;50.102;19.884;2022-08-03T14:42:23;4.95;;;4.10;;
52230;SDS011;38192;50.102;19.884;2022-08-03T14:44:49;5.38;;;3.47;;
52230;SDS011;38192;50.102;19.884;2022-08-03T14:47:15;4.20;;;3.80;;
52230;SDS011;38192;50.102;19.884;2022-08-03T14:49:41;4.50;;;4.10;;
52230;SDS011;38192;50.102;19.884;2022-08-03T14:52:08;6.63;;;3.65;;
52230;SDS011;38192;50.102;19.884;2022-08-03T14:54:34;4.57;;;4.18;;
52230;SDS011;38192;50.102;19.884;2022-08-03T14:57:00;5.15;;;4.65;;
52230;SDS011;38192;50.102;19.884;2022-08-03T14:59:26;5.93;;;4.80;;
52230;SDS011;38192;50.102;19.884;2022-08-03T15:01:52;6.78;;;4.88;;
52230;SDS011;38192;50.102;19.884;2022-08-03T15:04:18;7.13;;;4.97;;
52230;SDS011;38192;50.102;19.884;2022-08-03T15:06:44;5.45;;;4.95;;
52230;SDS011;38192;50.102;19.884;2022-08-03T15:09:09;6.65;;;4.93;;
52230;SDS011;38192;50.102;19.884;2022-08-03T15:11:35;6.22;;;4.82;;
52230;SDS011;38192;50.102;19.884;2022-08-03T15:14:01;8.90;;;5.38;;
52230;SDS011;38192;50.102;19.884;2022-08-03T15:16:27;6.68;;;4.63;;
52230;SDS011;38192;50.102;19.884;2022-08-03T15:18:53;6.35;;;5.13;;
52230;SDS011;38192;50.102;19.884;2022-08-03T15:21:19;6.85;;;4.70;;
52230;SDS011;38192;50.102;19.884;2022-08-03T15:23:44;5.50;;;4.57;;
52230;SDS011;38192;50.102;19.884;2022-08-03T15:26:10;6.97;;;4.85;;
52230;SDS011;38192;50.102;19.884;2022-08-03T15:28:36;5.82;;;4.63;;